| Date | Time | Temp. (oF) | Dew Point (oF) | Rel. Hum. (%) | Press. (in.) | Wind Dir. | Wind Speed (mph) | Hourly Rainfall (in.) |
|
|---|---|---|---|---|---|---|---|---|---|
| 1 | 11/25 | 00:00 | 40 | 38 | 93 | 30.26 | N | 0 | 0.00 |
| 2 | 11/24 | 23:00 | 40 | 37 | 90 | 30.25 | N | 0 | 0.00 |
| 3 | 11/24 | 22:00 | 43 | 38 | 85 | 30.24 | N | 0 | 0.00 |
| 4 | 11/24 | 21:00 | 43 | 38 | 85 | 30.24 | N | 0 | 0.00 |
| 5 | 11/24 | 20:00 | 44 | 39 | 83 | 30.24 | N | 0 | 0.00 |
| 6 | 11/24 | 19:00 | 44 | 38 | 80 | 30.23 | N | 0 | 0.00 |
| 7 | 11/24 | 18:00 | 45 | 39 | 80 | 30.21 | N | 0 | 0.00 |
| 8 | 11/24 | 17:00 | 45 | 37 | 76 | 30.19 | N | 0 | 0.00 |
| 9 | 11/24 | 16:00 | 48 | 38 | 70 | 30.18 | N | 2 | 0.00 |
| 10 | 11/24 | 15:00 | 48 | 39 | 71 | 30.17 | N | 0 | 0.00 |
| 11 | 11/24 | 14:00 | 47 | 38 | 71 | 30.16 | N | 0 | 0.00 |
| 12 | 11/24 | 13:00 | 46 | 38 | 75 | 30.17 | N | 0 | 0.00 |
| 13 | 11/24 | 12:00 | 45 | 38 | 77 | 30.19 | N | 0 | 0.00 |
| 14 | 11/24 | 11:00 | 43 | 36 | 79 | 30.21 | N | 0 | 0.00 |
| 15 | 11/24 | 10:00 | 42 | 36 | 81 | 30.23 | N | 2 | 0.00 |
| 16 | 11/24 | 09:00 | 41 | 35 | 82 | 30.24 | N | 2 | 0.00 |
| 17 | 11/24 | 08:00 | 41 | 35 | 81 | 30.24 | N | 0 | 0.00 |
| 18 | 11/24 | 07:00 | 40 | 30 | 68 | 30.23 | N | 5 | 0.00 |
| 19 | 11/24 | 06:00 | 39 | 27 | 64 | 30.23 | N | 1 | 0.00 |
| 20 | 11/24 | 05:00 | 39 | 27 | 63 | 30.24 | N | 2 | 0.00 |
| 21 | 11/24 | 04:00 | 38 | 26 | 64 | 30.25 | N | 1 | 0.00 |
| 22 | 11/24 | 03:00 | 37 | 27 | 67 | 30.25 | N | 2 | 0.00 |
| 23 | 11/24 | 02:00 | 37 | 27 | 67 | 30.26 | N | 0 | 0.00 |
| 24 | 11/24 | 01:00 | 38 | 26 | 64 | 30.27 | N | 0 | 0.00 |